sensor_id;sensor_type;location;lat;lon;timestamp;P1;durP1;ratioP1;P2;durP2;ratioP2
67721;SDS011;58309;45.292;11.820;2022-12-07T00:03:40;125.00;;;39.83;;
67721;SDS011;58309;45.292;11.820;2022-12-07T00:06:08;113.47;;;39.17;;
67721;SDS011;58309;45.292;11.820;2022-12-07T00:08:35;111.43;;;39.10;;
67721;SDS011;58309;45.292;11.820;2022-12-07T00:11:11;102.80;;;36.75;;
67721;SDS011;58309;45.292;11.820;2022-12-07T00:13:41;118.03;;;37.72;;
67721;SDS011;58309;45.292;11.820;2022-12-07T00:16:17;122.53;;;39.45;;
67721;SDS011;58309;45.292;11.820;2022-12-07T00:18:44;113.88;;;38.10;;
67721;SDS011;58309;45.292;11.820;2022-12-07T00:23:41;141.60;;;42.03;;
67721;SDS011;58309;45.292;11.820;2022-12-07T00:26:12;127.03;;;39.70;;
67721;SDS011;58309;45.292;11.820;2022-12-07T00:28:44;125.68;;;39.15;;
67721;SDS011;58309;45.292;11.820;2022-12-07T00:31:15;112.93;;;37.72;;
67721;SDS011;58309;45.292;11.820;2022-12-07T00:33:42;123.60;;;37.53;;
67721;SDS011;58309;45.292;11.820;2022-12-07T00:36:08;113.60;;;37.33;;
67721;SDS011;58309;45.292;11.820;2022-12-07T00:38:36;117.22;;;39.22;;
67721;SDS011;58309;45.292;11.820;2022-12-07T00:41:03;107.93;;;36.67;;
67721;SDS011;58309;45.292;11.820;2022-12-07T00:43:32;110.60;;;39.13;;
67721;SDS011;58309;45.292;11.820;2022-12-07T00:45:57;117.95;;;38.08;;
67721;SDS011;58309;45.292;11.820;2022-12-07T00:48:23;127.90;;;40.67;;
67721;SDS011;58309;45.292;11.820;2022-12-07T00:50:49;132.13;;;39.67;;
67721;SDS011;58309;45.292;11.820;2022-12-07T00:53:15;117.80;;;39.97;;
67721;SDS011;58309;45.292;11.820;2022-12-07T00:55:42;109.68;;;37.30;;
67721;SDS011;58309;45.292;11.820;2022-12-07T00:58:09;139.05;;;36.30;;
67721;SDS011;58309;45.292;11.820;2022-12-07T01:00:35;111.60;;;33.42;;
67721;SDS011;58309;45.292;11.820;2022-12-07T01:03:03;137.68;;;34.42;;
67721;SDS011;58309;45.292;11.820;2022-12-07T01:05:29;140.32;;;36.53;;
67721;SDS011;58309;45.292;11.820;2022-12-07T01:07:55;187.48;;;34.97;;
67721;SDS011;58309;45.292;11.820;2022-12-07T01:10:20;183.00;;;35.60;;
67721;SDS011;58309;45.292;11.820;2022-12-07T01:12:46;113.40;;;34.28;;
67721;SDS011;58309;45.292;11.820;2022-12-07T01:15:11;87.75;;;30.15;;
67721;SDS011;58309;45.292;11.820;2022-12-07T01:17:37;91.28;;;30.67;;
67721;SDS011;58309;45.292;11.820;2022-12-07T01:20:02;103.90;;;29.35;;
67721;SDS011;58309;45.292;11.820;2022-12-07T01:22:28;155.10;;;30.08;;
67721;SDS011;58309;45.292;11.820;2022-12-07T01:24:54;93.40;;;28.48;;
67721;SDS011;58309;45.292;11.820;2022-12-07T01:27:19;96.05;;;26.95;;
67721;SDS011;58309;45.292;11.820;2022-12-07T01:29:45;132.68;;;28.67;;
67721;SDS011;58309;45.292;11.820;2022-12-07T01:32:10;184.65;;;29.63;;
67721;SDS011;58309;45.292;11.820;2022-12-07T01:34:36;159.75;;;30.13;;
67721;SDS011;58309;45.292;11.820;2022-12-07T01:37:02;270.70;;;33.83;;
67721;SDS011;58309;45.292;11.820;2022-12-07T01:39:27;133.85;;;29.33;;
67721;SDS011;58309;45.292;11.820;2022-12-07T01:41:53;180.95;;;31.42;;
67721;SDS011;58309;45.292;11.820;2022-12-07T01:44:20;200.85;;;32.60;;
67721;SDS011;58309;45.292;11.820;2022-12-07T01:46:50;159.85;;;31.00;;
67721;SDS011;58309;45.292;11.820;2022-12-07T01:49:21;117.55;;;30.58;;
67721;SDS011;58309;45.292;11.820;2022-12-07T01:51:51;117.45;;;30.08;;
67721;SDS011;58309;45.292;11.820;2022-12-07T01:54:19;264.58;;;33.65;;
67721;SDS011;58309;45.292;11.820;2022-12-07T01:56:51;294.58;;;33.40;;
67721;SDS011;58309;45.292;11.820;2022-12-07T01:59:20;172.95;;;32.35;;
67721;SDS011;58309;45.292;11.820;2022-12-07T02:01:47;131.73;;;29.75;;
67721;SDS011;58309;45.292;11.820;2022-12-07T02:04:13;222.00;;;33.90;;
67721;SDS011;58309;45.292;11.820;2022-12-07T02:06:40;201.73;;;32.28;;
67721;SDS011;58309;45.292;11.820;2022-12-07T02:09:07;125.38;;;29.73;;
67721;SDS011;58309;45.292;11.820;2022-12-07T02:11:32;127.22;;;29.45;;
67721;SDS011;58309;45.292;11.820;2022-12-07T02:13:58;183.98;;;30.88;;
67721;SDS011;58309;45.292;11.820;2022-12-07T02:16:36;172.88;;;29.77;;
67721;SDS011;58309;45.292;11.820;2022-12-07T02:30:19;131.85;;;28.63;;
67721;SDS011;58309;45.292;11.820;2022-12-07T02:35:28;118.57;;;25.92;;
67721;SDS011;58309;45.292;11.820;2022-12-07T02:40:51;167.35;;;25.98;;
67721;SDS011;58309;45.292;11.820;2022-12-07T02:43:36;135.88;;;27.02;;
67721;SDS011;58309;45.292;11.820;2022-12-07T02:46:07;84.88;;;24.85;;
67721;SDS011;58309;45.292;11.820;2022-12-07T02:48:36;95.60;;;23.85;;
67721;SDS011;58309;45.292;11.820;2022-12-07T02:51:04;95.20;;;26.33;;
67721;SDS011;58309;45.292;11.820;2022-12-07T02:53:30;89.82;;;24.42;;
67721;SDS011;58309;45.292;11.820;2022-12-07T03:06:51;51.22;;;23.05;;
67721;SDS011;58309;45.292;11.820;2022-12-07T03:09:25;56.22;;;22.20;;
67721;SDS011;58309;45.292;11.820;2022-12-07T03:12:17;54.22;;;22.25;;
67721;SDS011;58309;45.292;11.820;2022-12-07T03:14:49;52.25;;;21.95;;
67721;SDS011;58309;45.292;11.820;2022-12-07T03:17:43;55.05;;;22.05;;
67721;SDS011;58309;45.292;11.820;2022-12-07T03:20:14;46.55;;;20.50;;
67721;SDS011;58309;45.292;11.820;2022-12-07T03:22:43;46.20;;;21.42;;
67721;SDS011;58309;45.292;11.820;2022-12-07T03:25:12;43.38;;;20.70;;
67721;SDS011;58309;45.292;11.820;2022-12-07T03:27:43;47.00;;;22.02;;
67721;SDS011;58309;45.292;11.820;2022-12-07T03:30:18;51.30;;;21.80;;
67721;SDS011;58309;45.292;11.820;2022-12-07T03:32:48;50.58;;;21.70;;
67721;SDS011;58309;45.292;11.820;2022-12-07T03:35:23;54.35;;;22.13;;
67721;SDS011;58309;45.292;11.820;2022-12-07T03:37:54;57.33;;;23.25;;
67721;SDS011;58309;45.292;11.820;2022-12-07T03:40:25;58.60;;;23.85;;
67721;SDS011;58309;45.292;11.820;2022-12-07T03:42:52;58.13;;;23.77;;
67721;SDS011;58309;45.292;11.820;2022-12-07T03:45:20;61.88;;;24.13;;
67721;SDS011;58309;45.292;11.820;2022-12-07T03:48:01;62.28;;;24.95;;
67721;SDS011;58309;45.292;11.820;2022-12-07T03:50:38;70.30;;;26.27;;
67721;SDS011;58309;45.292;11.820;2022-12-07T03:53:15;100.53;;;29.65;;
67721;SDS011;58309;45.292;11.820;2022-12-07T03:55:46;97.70;;;31.67;;
67721;SDS011;58309;45.292;11.820;2022-12-07T03:58:17;106.05;;;34.53;;
67721;SDS011;58309;45.292;11.820;2022-12-07T04:00:46;104.07;;;33.33;;
67721;SDS011;58309;45.292;11.820;2022-12-07T04:03:13;92.57;;;31.55;;
67721;SDS011;58309;45.292;11.820;2022-12-07T04:05:38;106.80;;;33.63;;
67721;SDS011;58309;45.292;11.820;2022-12-07T04:08:04;83.38;;;30.20;;
67721;SDS011;58309;45.292;11.820;2022-12-07T04:10:30;86.82;;;29.67;;
67721;SDS011;58309;45.292;11.820;2022-12-07T04:12:56;74.20;;;29.42;;
67721;SDS011;58309;45.292;11.820;2022-12-07T04:15:21;60.90;;;26.48;;
67721;SDS011;58309;45.292;11.820;2022-12-07T04:17:47;71.72;;;28.20;;
67721;SDS011;58309;45.292;11.820;2022-12-07T04:20:12;71.78;;;28.80;;
67721;SDS011;58309;45.292;11.820;2022-12-07T04:22:38;75.50;;;29.55;;
67721;SDS011;58309;45.292;11.820;2022-12-07T04:25:04;80.80;;;29.30;;
67721;SDS011;58309;45.292;11.820;2022-12-07T04:27:29;96.82;;;31.98;;
67721;SDS011;58309;45.292;11.820;2022-12-07T04:29:55;101.25;;;30.20;;
67721;SDS011;58309;45.292;11.820;2022-12-07T04:32:21;100.35;;;30.08;;
67721;SDS011;58309;45.292;11.820;2022-12-07T04:34:47;92.57;;;29.10;;
67721;SDS011;58309;45.292;11.820;2022-12-07T04:37:12;125.25;;;32.65;;
67721;SDS011;58309;45.292;11.820;2022-12-07T04:39:38;98.28;;;31.70;;
67721;SDS011;58309;45.292;11.820;2022-12-07T04:42:03;80.43;;;29.30;;
67721;SDS011;58309;45.292;11.820;2022-12-07T04:44:29;72.38;;;29.48;;
67721;SDS011;58309;45.292;11.820;2022-12-07T04:46:55;72.35;;;29.30;;
67721;SDS011;58309;45.292;11.820;2022-12-07T04:49:22;68.57;;;28.95;;
67721;SDS011;58309;45.292;11.820;2022-12-07T04:51:49;64.05;;;27.67;;
67721;SDS011;58309;45.292;11.820;2022-12-07T04:54:15;60.78;;;27.77;;
67721;SDS011;58309;45.292;11.820;2022-12-07T04:56:40;68.72;;;28.88;;
67721;SDS011;58309;45.292;11.820;2022-12-07T04:59:06;55.67;;;26.05;;
67721;SDS011;58309;45.292;11.820;2022-12-07T05:01:32;58.20;;;25.55;;
67721;SDS011;58309;45.292;11.820;2022-12-07T05:03:59;58.67;;;25.02;;
67721;SDS011;58309;45.292;11.820;2022-12-07T05:06:25;52.70;;;24.70;;
67721;SDS011;58309;45.292;11.820;2022-12-07T05:08:50;54.05;;;25.42;;
67721;SDS011;58309;45.292;11.820;2022-12-07T05:11:16;53.42;;;24.60;;
67721;SDS011;58309;45.292;11.820;2022-12-07T05:14:01;46.30;;;22.27;;
67721;SDS011;58309;45.292;11.820;2022-12-07T05:16:28;46.17;;;22.98;;
67721;SDS011;58309;45.292;11.820;2022-12-07T05:18:54;42.30;;;22.38;;
67721;SDS011;58309;45.292;11.820;2022-12-07T05:21:20;45.78;;;22.27;;
67721;SDS011;58309;45.292;11.820;2022-12-07T05:23:45;47.13;;;22.65;;
67721;SDS011;58309;45.292;11.820;2022-12-07T05:26:11;45.17;;;23.55;;
67721;SDS011;58309;45.292;11.820;2022-12-07T05:28:36;58.33;;;24.88;;
67721;SDS011;58309;45.292;11.820;2022-12-07T05:31:02;57.80;;;26.10;;
67721;SDS011;58309;45.292;11.820;2022-12-07T05:33:28;59.15;;;25.77;;
67721;SDS011;58309;45.292;11.820;2022-12-07T05:35:53;60.97;;;25.55;;
67721;SDS011;58309;45.292;11.820;2022-12-07T05:40:53;65.82;;;28.13;;
67721;SDS011;58309;45.292;11.820;2022-12-07T05:43:19;64.55;;;27.25;;
67721;SDS011;58309;45.292;11.820;2022-12-07T05:45:44;64.10;;;27.25;;
67721;SDS011;58309;45.292;11.820;2022-12-07T05:48:09;65.38;;;28.00;;
67721;SDS011;58309;45.292;11.820;2022-12-07T05:50:35;61.42;;;26.27;;
67721;SDS011;58309;45.292;11.820;2022-12-07T05:53:00;61.20;;;26.02;;
67721;SDS011;58309;45.292;11.820;2022-12-07T05:55:26;58.10;;;25.50;;
67721;SDS011;58309;45.292;11.820;2022-12-07T05:57:51;63.13;;;26.50;;
67721;SDS011;58309;45.292;11.820;2022-12-07T06:00:35;66.50;;;30.30;;
67721;SDS011;58309;45.292;11.820;2022-12-07T06:03:01;73.18;;;31.13;;
67721;SDS011;58309;45.292;11.820;2022-12-07T06:05:26;83.93;;;27.00;;
67721;SDS011;58309;45.292;11.820;2022-12-07T06:07:52;68.45;;;26.55;;
67721;SDS011;58309;45.292;11.820;2022-12-07T06:10:17;78.63;;;27.40;;
67721;SDS011;58309;45.292;11.820;2022-12-07T06:12:43;65.68;;;26.02;;
67721;SDS011;58309;45.292;11.820;2022-12-07T06:15:11;66.30;;;26.33;;
67721;SDS011;58309;45.292;11.820;2022-12-07T06:17:38;71.60;;;26.10;;
67721;SDS011;58309;45.292;11.820;2022-12-07T06:20:03;66.40;;;26.25;;
67721;SDS011;58309;45.292;11.820;2022-12-07T06:22:30;78.45;;;28.13;;
67721;SDS011;58309;45.292;11.820;2022-12-07T06:24:55;74.88;;;29.58;;
67721;SDS011;58309;45.292;11.820;2022-12-07T06:27:21;81.05;;;28.27;;
67721;SDS011;58309;45.292;11.820;2022-12-07T06:29:46;85.55;;;29.73;;
67721;SDS011;58309;45.292;11.820;2022-12-07T06:32:12;89.22;;;30.35;;
67721;SDS011;58309;45.292;11.820;2022-12-07T06:34:37;77.38;;;30.13;;
67721;SDS011;58309;45.292;11.820;2022-12-07T06:37:03;93.75;;;34.55;;
67721;SDS011;58309;45.292;11.820;2022-12-07T06:39:28;96.07;;;34.17;;
67721;SDS011;58309;45.292;11.820;2022-12-07T06:41:54;94.15;;;31.83;;
67721;SDS011;58309;45.292;11.820;2022-12-07T06:44:21;93.53;;;29.20;;
67721;SDS011;58309;45.292;11.820;2022-12-07T06:46:47;95.82;;;30.42;;
67721;SDS011;58309;45.292;11.820;2022-12-07T06:49:13;79.25;;;28.13;;
67721;SDS011;58309;45.292;11.820;2022-12-07T06:51:39;88.40;;;29.67;;
67721;SDS011;58309;45.292;11.820;2022-12-07T06:54:08;95.18;;;30.13;;
67721;SDS011;58309;45.292;11.820;2022-12-07T06:56:35;95.97;;;30.70;;
67721;SDS011;58309;45.292;11.820;2022-12-07T06:59:00;112.78;;;33.17;;
67721;SDS011;58309;45.292;11.820;2022-12-07T07:01:26;104.85;;;32.20;;
67721;SDS011;58309;45.292;11.820;2022-12-07T07:03:52;117.45;;;33.13;;
67721;SDS011;58309;45.292;11.820;2022-12-07T07:06:17;118.60;;;32.50;;
67721;SDS011;58309;45.292;11.820;2022-12-07T07:08:43;127.38;;;32.47;;
67721;SDS011;58309;45.292;11.820;2022-12-07T07:11:09;109.43;;;32.17;;
67721;SDS011;58309;45.292;11.820;2022-12-07T07:13:36;124.90;;;31.88;;
67721;SDS011;58309;45.292;11.820;2022-12-07T07:16:01;110.93;;;32.03;;
67721;SDS011;58309;45.292;11.820;2022-12-07T07:18:27;110.05;;;32.20;;
67721;SDS011;58309;45.292;11.820;2022-12-07T07:20:53;107.88;;;30.52;;
67721;SDS011;58309;45.292;11.820;2022-12-07T07:23:20;120.90;;;34.70;;
67721;SDS011;58309;45.292;11.820;2022-12-07T07:25:46;144.10;;;40.60;;
67721;SDS011;58309;45.292;11.820;2022-12-07T07:28:12;146.93;;;39.58;;
67721;SDS011;58309;45.292;11.820;2022-12-07T07:30:38;159.73;;;43.13;;
67721;SDS011;58309;45.292;11.820;2022-12-07T07:33:04;172.07;;;43.95;;
67721;SDS011;58309;45.292;11.820;2022-12-07T07:35:31;163.27;;;43.13;;
67721;SDS011;58309;45.292;11.820;2022-12-07T07:37:58;161.02;;;41.13;;
67721;SDS011;58309;45.292;11.820;2022-12-07T07:40:24;145.48;;;39.67;;
67721;SDS011;58309;45.292;11.820;2022-12-07T07:42:50;145.73;;;39.35;;
67721;SDS011;58309;45.292;11.820;2022-12-07T07:45:17;134.98;;;38.97;;
67721;SDS011;58309;45.292;11.820;2022-12-07T07:47:43;146.05;;;39.72;;
67721;SDS011;58309;45.292;11.820;2022-12-07T07:50:09;156.20;;;41.60;;
67721;SDS011;58309;45.292;11.820;2022-12-07T07:52:35;147.13;;;40.75;;
67721;SDS011;58309;45.292;11.820;2022-12-07T07:55:00;151.77;;;41.50;;
67721;SDS011;58309;45.292;11.820;2022-12-07T07:57:26;153.10;;;41.05;;
67721;SDS011;58309;45.292;11.820;2022-12-07T07:59:52;140.55;;;41.47;;
67721;SDS011;58309;45.292;11.820;2022-12-07T08:02:19;104.95;;;37.35;;
67721;SDS011;58309;45.292;11.820;2022-12-07T08:04:46;82.95;;;33.38;;
67721;SDS011;58309;45.292;11.820;2022-12-07T08:07:12;43.75;;;24.15;;
67721;SDS011;58309;45.292;11.820;2022-12-07T08:09:38;39.42;;;22.08;;
67721;SDS011;58309;45.292;11.820;2022-12-07T08:12:04;32.45;;;19.77;;
67721;SDS011;58309;45.292;11.820;2022-12-07T08:14:30;28.83;;;18.48;;
67721;SDS011;58309;45.292;11.820;2022-12-07T08:16:55;27.65;;;16.52;;
67721;SDS011;58309;45.292;11.820;2022-12-07T08:19:21;21.77;;;14.85;;
67721;SDS011;58309;45.292;11.820;2022-12-07T08:21:47;26.17;;;16.85;;
67721;SDS011;58309;45.292;11.820;2022-12-07T08:24:13;26.85;;;16.23;;
67721;SDS011;58309;45.292;11.820;2022-12-07T08:26:38;24.95;;;16.10;;
67721;SDS011;58309;45.292;11.820;2022-12-07T08:29:04;22.38;;;14.98;;
67721;SDS011;58309;45.292;11.820;2022-12-07T08:31:29;23.35;;;14.70;;
67721;SDS011;58309;45.292;11.820;2022-12-07T08:33:55;23.20;;;15.00;;
67721;SDS011;58309;45.292;11.820;2022-12-07T08:36:21;21.65;;;14.40;;
67721;SDS011;58309;45.292;11.820;2022-12-07T08:38:49;23.35;;;14.32;;
67721;SDS011;58309;45.292;11.820;2022-12-07T08:41:15;26.55;;;14.10;;
67721;SDS011;58309;45.292;11.820;2022-12-07T08:43:41;22.20;;;14.82;;
67721;SDS011;58309;45.292;11.820;2022-12-07T08:48:46;15.98;;;11.60;;
67721;SDS011;58309;45.292;11.820;2022-12-07T08:51:17;16.25;;;11.77;;
67721;SDS011;58309;45.292;11.820;2022-12-07T08:53:42;27.48;;;17.85;;
67721;SDS011;58309;45.292;11.820;2022-12-07T08:56:09;15.50;;;11.70;;
67721;SDS011;58309;45.292;11.820;2022-12-07T08:58:35;17.00;;;12.55;;
67721;SDS011;58309;45.292;11.820;2022-12-07T09:01:01;15.48;;;11.95;;
67721;SDS011;58309;45.292;11.820;2022-12-07T09:03:27;18.45;;;11.98;;
67721;SDS011;58309;45.292;11.820;2022-12-07T09:05:53;15.95;;;11.68;;
67721;SDS011;58309;45.292;11.820;2022-12-07T09:08:19;16.02;;;11.77;;
67721;SDS011;58309;45.292;11.820;2022-12-07T09:10:45;17.25;;;12.55;;
67721;SDS011;58309;45.292;11.820;2022-12-07T09:13:11;17.35;;;12.77;;
67721;SDS011;58309;45.292;11.820;2022-12-07T09:15:36;18.48;;;12.63;;
67721;SDS011;58309;45.292;11.820;2022-12-07T09:18:02;21.75;;;12.80;;
67721;SDS011;58309;45.292;11.820;2022-12-07T09:20:28;16.42;;;12.45;;
67721;SDS011;58309;45.292;11.820;2022-12-07T09:22:53;15.88;;;10.75;;
67721;SDS011;58309;45.292;11.820;2022-12-07T09:25:19;16.73;;;11.13;;
67721;SDS011;58309;45.292;11.820;2022-12-07T09:27:44;16.73;;;11.05;;
67721;SDS011;58309;45.292;11.820;2022-12-07T09:30:10;16.63;;;11.48;;
67721;SDS011;58309;45.292;11.820;2022-12-07T09:32:36;18.55;;;11.90;;
67721;SDS011;58309;45.292;11.820;2022-12-07T09:35:01;16.02;;;12.02;;
67721;SDS011;58309;45.292;11.820;2022-12-07T09:37:27;17.10;;;12.25;;
67721;SDS011;58309;45.292;11.820;2022-12-07T09:39:53;17.58;;;12.95;;
67721;SDS011;58309;45.292;11.820;2022-12-07T09:42:41;22.25;;;12.05;;
67721;SDS011;58309;45.292;11.820;2022-12-07T09:45:12;21.65;;;12.75;;
67721;SDS011;58309;45.292;11.820;2022-12-07T09:47:41;17.88;;;12.52;;
67721;SDS011;58309;45.292;11.820;2022-12-07T09:50:10;16.60;;;12.10;;
67721;SDS011;58309;45.292;11.820;2022-12-07T09:52:39;16.23;;;11.60;;
67721;SDS011;58309;45.292;11.820;2022-12-07T09:55:09;13.93;;;10.30;;
67721;SDS011;58309;45.292;11.820;2022-12-07T09:57:40;12.77;;;9.23;;
67721;SDS011;58309;45.292;11.820;2022-12-07T10:00:13;14.57;;;10.55;;
67721;SDS011;58309;45.292;11.820;2022-12-07T10:02:44;15.65;;;10.93;;
67721;SDS011;58309;45.292;11.820;2022-12-07T10:05:13;13.80;;;9.60;;
67721;SDS011;58309;45.292;11.820;2022-12-07T10:07:41;14.40;;;9.52;;
67721;SDS011;58309;45.292;11.820;2022-12-07T10:10:15;14.10;;;10.85;;
67721;SDS011;58309;45.292;11.820;2022-12-07T10:13:01;12.93;;;10.10;;
67721;SDS011;58309;45.292;11.820;2022-12-07T10:15:41;12.68;;;10.30;;
67721;SDS011;58309;45.292;11.820;2022-12-07T10:23:25;13.82;;;9.00;;
67721;SDS011;58309;45.292;11.820;2022-12-07T10:25:50;13.07;;;9.15;;
67721;SDS011;58309;45.292;11.820;2022-12-07T10:28:20;14.52;;;9.20;;
67721;SDS011;58309;45.292;11.820;2022-12-07T10:30:51;12.55;;;8.63;;
67721;SDS011;58309;45.292;11.820;2022-12-07T10:33:38;12.50;;;9.30;;
67721;SDS011;58309;45.292;11.820;2022-12-07T10:38:47;11.43;;;7.40;;
67721;SDS011;58309;45.292;11.820;2022-12-07T10:41:18;9.18;;;7.00;;
67721;SDS011;58309;45.292;11.820;2022-12-07T10:43:48;11.93;;;7.63;;
67721;SDS011;58309;45.292;11.820;2022-12-07T10:48:59;7.68;;;5.90;;
67721;SDS011;58309;45.292;11.820;2022-12-07T11:00:21;8.00;;;6.00;;
67721;SDS011;58309;45.292;11.820;2022-12-07T11:09:00;6.65;;;5.50;;
67721;SDS011;58309;45.292;11.820;2022-12-07T11:22:59;6.18;;;4.78;;
67721;SDS011;58309;45.292;11.820;2022-12-07T11:25:32;5.25;;;4.43;;
67721;SDS011;58309;45.292;11.820;2022-12-07T11:30:57;6.25;;;5.00;;
67721;SDS011;58309;45.292;11.820;2022-12-07T11:33:45;5.30;;;4.78;;
67721;SDS011;58309;45.292;11.820;2022-12-07T11:42:01;5.30;;;4.18;;
67721;SDS011;58309;45.292;11.820;2022-12-07T11:47:18;5.43;;;4.35;;
67721;SDS011;58309;45.292;11.820;2022-12-07T11:53:05;5.43;;;4.10;;
67721;SDS011;58309;45.292;11.820;2022-12-07T11:55:52;4.95;;;4.43;;
67721;SDS011;58309;45.292;11.820;2022-12-07T12:04:06;5.38;;;3.35;;
67721;SDS011;58309;45.292;11.820;2022-12-07T12:06:35;5.45;;;4.10;;
67721;SDS011;58309;45.292;11.820;2022-12-07T12:09:12;5.78;;;4.40;;
67721;SDS011;58309;45.292;11.820;2022-12-07T12:19:32;4.95;;;4.50;;
67721;SDS011;58309;45.292;11.820;2022-12-07T12:22:10;7.03;;;5.93;;
67721;SDS011;58309;45.292;11.820;2022-12-07T12:24:45;6.97;;;5.60;;
67721;SDS011;58309;45.292;11.820;2022-12-07T12:27:26;6.00;;;5.40;;
67721;SDS011;58309;45.292;11.820;2022-12-07T12:29:55;11.25;;;7.55;;
67721;SDS011;58309;45.292;11.820;2022-12-07T12:32:29;8.20;;;6.05;;
67721;SDS011;58309;45.292;11.820;2022-12-07T12:35:02;11.75;;;6.82;;
67721;SDS011;58309;45.292;11.820;2022-12-07T12:37:45;7.53;;;5.90;;
67721;SDS011;58309;45.292;11.820;2022-12-07T12:42:44;10.98;;;7.65;;
67721;SDS011;58309;45.292;11.820;2022-12-07T12:45:43;8.25;;;6.95;;
67721;SDS011;58309;45.292;11.820;2022-12-07T12:54:03;8.98;;;6.72;;
67721;SDS011;58309;45.292;11.820;2022-12-07T13:15:37;9.60;;;7.10;;
67721;SDS011;58309;45.292;11.820;2022-12-07T13:18:35;11.70;;;8.02;;
67721;SDS011;58309;45.292;11.820;2022-12-07T13:20:56;13.38;;;8.30;;
67721;SDS011;58309;45.292;11.820;2022-12-07T13:29:04;25.20;;;16.02;;
67721;SDS011;58309;45.292;11.820;2022-12-07T13:34:33;25.85;;;15.15;;
67721;SDS011;58309;45.292;11.820;2022-12-07T13:39:47;27.27;;;14.95;;
67721;SDS011;58309;45.292;11.820;2022-12-07T13:44:51;26.50;;;15.27;;
67721;SDS011;58309;45.292;11.820;2022-12-07T13:49:49;23.88;;;14.45;;
67721;SDS011;58309;45.292;11.820;2022-12-07T13:52:22;23.20;;;14.50;;
67721;SDS011;58309;45.292;11.820;2022-12-07T13:57:16;23.45;;;14.32;;
67721;SDS011;58309;45.292;11.820;2022-12-07T13:59:42;25.23;;;14.80;;
67721;SDS011;58309;45.292;11.820;2022-12-07T14:02:19;26.00;;;14.57;;
67721;SDS011;58309;45.292;11.820;2022-12-07T14:05:14;23.70;;;14.90;;
67721;SDS011;58309;45.292;11.820;2022-12-07T14:10:26;24.35;;;14.43;;
67721;SDS011;58309;45.292;11.820;2022-12-07T14:12:55;25.35;;;13.10;;
67721;SDS011;58309;45.292;11.820;2022-12-07T14:15:23;23.75;;;13.75;;
67721;SDS011;58309;45.292;11.820;2022-12-07T14:17:52;19.95;;;12.70;;
67721;SDS011;58309;45.292;11.820;2022-12-07T14:20:39;25.27;;;13.75;;
67721;SDS011;58309;45.292;11.820;2022-12-07T14:23:20;20.73;;;12.73;;
67721;SDS011;58309;45.292;11.820;2022-12-07T14:25:50;21.80;;;13.77;;
67721;SDS011;58309;45.292;11.820;2022-12-07T14:28:28;25.42;;;14.52;;
67721;SDS011;58309;45.292;11.820;2022-12-07T14:30:55;23.17;;;13.68;;
67721;SDS011;58309;45.292;11.820;2022-12-07T14:33:20;26.88;;;14.73;;
67721;SDS011;58309;45.292;11.820;2022-12-07T14:35:47;21.45;;;13.95;;
67721;SDS011;58309;45.292;11.820;2022-12-07T14:38:12;23.35;;;13.73;;
67721;SDS011;58309;45.292;11.820;2022-12-07T14:40:38;22.95;;;13.73;;
67721;SDS011;58309;45.292;11.820;2022-12-07T14:43:05;22.77;;;14.52;;
67721;SDS011;58309;45.292;11.820;2022-12-07T14:45:36;21.83;;;13.52;;
67721;SDS011;58309;45.292;11.820;2022-12-07T14:48:01;21.05;;;13.98;;
67721;SDS011;58309;45.292;11.820;2022-12-07T14:50:27;22.10;;;13.48;;
67721;SDS011;58309;45.292;11.820;2022-12-07T14:52:56;22.52;;;13.65;;
67721;SDS011;58309;45.292;11.820;2022-12-07T14:55:26;25.27;;;13.32;;
67721;SDS011;58309;45.292;11.820;2022-12-07T14:57:53;23.02;;;13.93;;
67721;SDS011;58309;45.292;11.820;2022-12-07T15:00:19;25.80;;;14.13;;
67721;SDS011;58309;45.292;11.820;2022-12-07T15:02:47;27.88;;;15.52;;
67721;SDS011;58309;45.292;11.820;2022-12-07T15:05:14;28.05;;;15.60;;
67721;SDS011;58309;45.292;11.820;2022-12-07T15:07:39;23.92;;;14.55;;
67721;SDS011;58309;45.292;11.820;2022-12-07T15:10:06;28.30;;;15.35;;
67721;SDS011;58309;45.292;11.820;2022-12-07T15:12:37;29.67;;;17.95;;
67721;SDS011;58309;45.292;11.820;2022-12-07T15:15:03;27.15;;;16.70;;
67721;SDS011;58309;45.292;11.820;2022-12-07T15:17:29;26.73;;;16.70;;
67721;SDS011;58309;45.292;11.820;2022-12-07T15:19:54;30.77;;;16.65;;
67721;SDS011;58309;45.292;11.820;2022-12-07T15:22:20;31.55;;;16.13;;
67721;SDS011;58309;45.292;11.820;2022-12-07T15:24:45;30.58;;;17.45;;
67721;SDS011;58309;45.292;11.820;2022-12-07T15:27:11;36.90;;;20.27;;
67721;SDS011;58309;45.292;11.820;2022-12-07T15:29:36;36.47;;;19.95;;
67721;SDS011;58309;45.292;11.820;2022-12-07T15:32:02;34.88;;;20.55;;
67721;SDS011;58309;45.292;11.820;2022-12-07T15:34:27;37.10;;;20.52;;
67721;SDS011;58309;45.292;11.820;2022-12-07T15:36:53;38.13;;;19.33;;
67721;SDS011;58309;45.292;11.820;2022-12-07T15:39:19;42.10;;;21.08;;
67721;SDS011;58309;45.292;11.820;2022-12-07T15:41:45;40.28;;;20.20;;
67721;SDS011;58309;45.292;11.820;2022-12-07T15:44:13;35.85;;;20.13;;
67721;SDS011;58309;45.292;11.820;2022-12-07T15:46:58;36.80;;;19.42;;
67721;SDS011;58309;45.292;11.820;2022-12-07T15:49:24;39.03;;;21.15;;
67721;SDS011;58309;45.292;11.820;2022-12-07T15:51:49;38.05;;;21.85;;
67721;SDS011;58309;45.292;11.820;2022-12-07T15:54:19;42.17;;;21.73;;
67721;SDS011;58309;45.292;11.820;2022-12-07T15:56:46;44.63;;;22.63;;
67721;SDS011;58309;45.292;11.820;2022-12-07T15:59:12;51.40;;;24.05;;
67721;SDS011;58309;45.292;11.820;2022-12-07T16:01:38;50.78;;;27.15;;
67721;SDS011;58309;45.292;11.820;2022-12-07T16:04:03;55.38;;;26.95;;
67721;SDS011;58309;45.292;11.820;2022-12-07T16:06:29;48.83;;;26.23;;
67721;SDS011;58309;45.292;11.820;2022-12-07T16:08:54;55.28;;;26.85;;
67721;SDS011;58309;45.292;11.820;2022-12-07T16:11:20;52.40;;;24.75;;
67721;SDS011;58309;45.292;11.820;2022-12-07T16:13:46;52.72;;;24.35;;
67721;SDS011;58309;45.292;11.820;2022-12-07T16:16:12;51.05;;;23.88;;
67721;SDS011;58309;45.292;11.820;2022-12-07T16:18:39;63.10;;;27.13;;
67721;SDS011;58309;45.292;11.820;2022-12-07T16:21:06;53.20;;;24.88;;
67721;SDS011;58309;45.292;11.820;2022-12-07T16:23:32;57.25;;;28.02;;
67721;SDS011;58309;45.292;11.820;2022-12-07T16:26:09;58.50;;;27.38;;
67721;SDS011;58309;45.292;11.820;2022-12-07T16:28:37;60.55;;;26.17;;
67721;SDS011;58309;45.292;11.820;2022-12-07T16:31:04;59.13;;;25.88;;
67721;SDS011;58309;45.292;11.820;2022-12-07T16:33:32;67.40;;;27.23;;
67721;SDS011;58309;45.292;11.820;2022-12-07T16:35:59;71.97;;;31.65;;
67721;SDS011;58309;45.292;11.820;2022-12-07T16:38:25;78.55;;;35.55;;
67721;SDS011;58309;45.292;11.820;2022-12-07T16:40:52;75.00;;;30.95;;
67721;SDS011;58309;45.292;11.820;2022-12-07T16:43:18;67.28;;;31.25;;
67721;SDS011;58309;45.292;11.820;2022-12-07T16:45:44;70.93;;;29.55;;
67721;SDS011;58309;45.292;11.820;2022-12-07T16:48:11;73.32;;;31.60;;